Time;durP1;ratioP1;P1;durP2;ratioP2;P2;SDS_P1;SDS_P2;PMS_P1;PMS_P2;Temp;Humidity;BMP_temperature;BMP_pressure;BME280_temperature;BME280_humidity;BME280_pressure;Samples;Min_cycle;Max_cycle;Signal;HPM_P1;HPM_P2
2021/12/17 00:00:45;;;;;;;18.25;12.75;;;10.40;99.90;;;;;;4952187;28;20043;-79
2021/12/17 00:03:18;;;;;;;18.40;12.18;;;10.40;99.90;;;;;;4952580;28;20027;-78
2021/12/17 00:08:14;;;;;;;21.07;13.80;;;10.40;99.90;;;;;;4954072;28;20039;-81
2021/12/17 00:10:41;;;;;;;21.35;14.52;;;10.40;99.90;;;;;;4951150;28;20443;-84
2021/12/17 00:13:08;;;;;;;21.40;14.95;;;10.40;99.90;;;;;;4951761;28;20028;-79
2021/12/17 00:15:33;;;;;;;22.55;14.45;;;10.40;99.90;;;;;;4952598;28;20292;-81
2021/12/17 00:18:10;;;;;;;18.65;13.35;;;10.40;99.90;;;;;;4952060;28;20424;-80
2021/12/17 00:53:00;;;;;;;21.08;14.13;;;10.40;99.90;;;;;;4952896;29;20028;-84
2021/12/17 00:55:25;;;;;;;21.45;14.45;;;10.30;99.90;;;;;;4950010;29;20038;-85
2021/12/17 00:57:51;;;;;;;16.55;10.77;;;10.30;99.90;;;;;;4952038;28;20082;-84
2021/12/17 01:00:21;;;;;;;19.73;12.45;;;10.30;99.90;;;;;;4951305;28;20036;-80
2021/12/17 01:02:48;;;;;;;15.45;11.15;;;10.20;99.90;;;;;;4952020;29;20041;-79
2021/12/17 01:05:18;;;;;;;15.52;11.32;;;10.30;99.90;;;;;;4949915;28;20035;-79
2021/12/17 01:07:51;;;;;;;15.90;11.23;;;10.30;99.90;;;;;;4952003;28;20047;-80
2021/12/17 01:10:28;;;;;;;14.98;10.93;;;10.30;99.90;;;;;;4948815;29;20023;-83
2021/12/17 01:12:54;;;;;;;17.20;11.57;;;10.30;99.90;;;;;;4951353;28;20066;-83
2021/12/17 01:15:20;;;;;;;19.48;11.30;;;10.30;99.90;;;;;;4934985;29;20048;-79
2021/12/17 01:17:50;;;;;;;20.38;13.55;;;10.30;99.90;;;;;;4948425;28;20031;-80
2021/12/17 01:36:38;;;;;;;22.63;14.45;;;10.30;99.90;;;;;;4951011;28;20122;-80
2021/12/17 01:40:25;;;;;;;22.20;13.30;;;10.30;99.90;;;;;;4935072;28;20035;-80
2021/12/17 01:42:09;;;;;;;25.63;13.90;;;10.30;99.90;;;;;;4951399;28;20029;-83
2021/12/17 01:44:38;;;;;;;25.52;14.43;;;10.20;99.90;;;;;;4935367;29;20031;-82
2021/12/17 01:47:06;;;;;;;23.30;13.95;;;10.20;99.90;;;;;;4935234;29;20023;-80
2021/12/17 02:00:08;;;;;;;18.38;12.60;;;10.00;99.90;;;;;;4951884;28;20530;-79
2021/12/17 02:02:41;;;;;;;17.52;12.13;;;9.90;99.90;;;;;;4937401;28;20051;-85
2021/12/17 02:05:08;;;;;;;17.20;11.52;;;9.90;99.90;;;;;;4935183;29;20027;-84
2021/12/17 02:07:34;;;;;;;12.57;8.88;;;9.90;99.90;;;;;;4937702;29;20086;-79
2021/12/17 02:19:23;;;;;;;14.70;9.73;;;9.90;99.90;;;;;;4956383;28;20042;-80
2021/12/17 02:31:33;;;;;;;;;;;10.00;99.90;;;;;;4955579;29;20506;-78
2021/12/17 02:34:09;;;;;;;11.50;8.25;;;10.00;99.90;;;;;;4938757;29;19906;-78
2021/12/17 02:36:39;;;;;;;13.52;9.63;;;10.00;99.90;;;;;;4955600;28;20031;-77
2021/12/17 02:39:34;;;;;;;13.60;9.55;;;10.00;99.90;;;;;;4938736;29;20116;-84
2021/12/17 02:47:20;;;;;;;11.90;8.45;;;10.00;99.90;;;;;;4955867;29;20551;-77
2021/12/17 02:49:47;;;;;;;12.07;9.15;;;10.00;99.90;;;;;;4938428;29;20133;-84
2021/12/17 02:52:14;;;;;;;11.35;8.55;;;10.00;99.90;;;;;;4955241;29;20032;-78
2021/12/17 02:54:40;;;;;;;10.57;8.40;;;10.00;99.90;;;;;;4938306;29;20050;-82
2021/12/17 02:57:08;;;;;;;10.32;8.35;;;10.10;99.90;;;;;;4938380;29;20483;-77
2021/12/17 02:59:36;;;;;;;13.77;9.30;;;10.00;99.90;;;;;;4937655;29;20038;-78
2021/12/17 03:02:04;;;;;;;11.38;8.48;;;10.10;99.90;;;;;;4938349;29;20031;-77
2021/12/17 03:04:32;;;;;;;13.77;8.95;;;10.10;99.90;;;;;;4937442;29;20038;-80
2021/12/17 03:06:58;;;;;;;11.85;8.65;;;10.10;99.90;;;;;;4954675;29;20405;-78
2021/12/17 03:09:44;;;;;;;9.88;8.35;;;10.10;99.90;;;;;;4938252;29;20043;-83
2021/12/17 03:12:20;;;;;;;10.55;7.97;;;10.10;99.90;;;;;;4954023;28;20129;-80
2021/12/17 03:14:55;;;;;;;10.15;7.90;;;10.10;99.90;;;;;;4937988;29;20480;-82
2021/12/17 03:17:44;;;;;;;10.50;8.13;;;10.10;99.90;;;;;;4938029;29;20476;-81
2021/12/17 03:25:35;;;;;;;11.30;8.20;;;10.10;99.90;;;;;;4955072;29;20115;-77
2021/12/17 03:28:01;;;;;;;11.32;8.50;;;10.10;99.90;;;;;;4953857;29;20487;-78
2021/12/17 03:30:26;;;;;;;11.75;9.27;;;10.20;99.90;;;;;;4936054;29;20051;-81
2021/12/17 03:32:52;;;;;;;15.00;9.60;;;10.10;99.90;;;;;;4953916;28;20027;-77
2021/12/17 03:35:18;;;;;;;12.32;8.57;;;10.20;99.90;;;;;;4954448;28;20027;-78
2021/12/17 03:37:43;;;;;;;14.80;10.02;;;10.20;99.90;;;;;;4936235;29;20079;-77
2021/12/17 03:40:13;;;;;;;12.65;9.05;;;10.20;99.90;;;;;;4951985;28;20035;-85
2021/12/17 03:42:45;;;;;;;11.13;8.13;;;10.20;99.90;;;;;;4954630;28;20032;-81
2021/12/17 03:45:11;;;;;;;11.23;8.07;;;10.20;99.90;;;;;;4952399;28;20026;-81
2021/12/17 03:47:37;;;;;;;11.60;8.00;;;10.20;99.90;;;;;;4952466;29;20468;-78
2021/12/17 03:50:04;;;;;;;13.02;8.02;;;10.20;99.90;;;;;;4953348;28;20034;-78
2021/12/17 03:52:30;;;;;;;10.30;7.30;;;10.20;99.90;;;;;;4954535;28;20050;-78
2021/12/17 03:54:56;;;;;;;11.43;8.10;;;10.20;99.90;;;;;;4952791;28;20476;-77
2021/12/17 03:57:22;;;;;;;15.25;8.80;;;10.20;99.90;;;;;;4950768;28;20027;-77
2021/12/17 03:59:48;;;;;;;11.73;8.05;;;10.20;99.90;;;;;;4953274;28;20031;-78
2021/12/17 04:02:13;;;;;;;13.02;8.32;;;10.20;99.90;;;;;;4950873;28;20038;-78
2021/12/17 04:04:39;;;;;;;11.52;8.30;;;10.20;99.90;;;;;;4954511;28;20110;-78
2021/12/17 04:07:05;;;;;;;11.55;8.38;;;10.20;99.90;;;;;;4939318;28;20114;-77
2021/12/17 04:09:31;;;;;;;11.95;8.45;;;10.20;99.90;;;;;;4936308;28;20059;-78
2021/12/17 04:12:00;;;;;;;15.38;9.23;;;10.20;99.90;;;;;;4933649;29;20036;-78
2021/12/17 04:14:34;;;;;;;13.77;8.82;;;10.20;99.90;;;;;;4933483;29;20027;-77
2021/12/17 04:17:04;;;;;;;13.00;8.60;;;10.20;99.90;;;;;;4942847;29;20062;-78
2021/12/17 04:19:29;;;;;;;12.48;8.82;;;10.20;99.90;;;;;;4952182;28;20046;-78
2021/12/17 04:21:55;;;;;;;14.77;9.43;;;10.20;99.90;;;;;;4948619;28;20028;-79
2021/12/17 04:24:21;;;;;;;11.57;8.73;;;10.20;99.90;;;;;;4935023;29;20031;-82
2021/12/17 04:26:46;;;;;;;11.77;7.97;;;10.20;99.90;;;;;;4936231;29;20436;-78
2021/12/17 04:29:13;;;;;;;15.52;9.63;;;10.20;99.90;;;;;;4935856;28;20054;-81
2021/12/17 04:31:38;;;;;;;12.95;9.05;;;10.20;99.90;;;;;;4936681;29;20023;-81
2021/12/17 04:34:04;;;;;;;11.82;8.75;;;10.20;99.90;;;;;;4936293;29;20038;-82
2021/12/17 04:36:33;;;;;;;13.68;9.02;;;10.20;99.90;;;;;;4935800;29;20028;-84
2021/12/17 04:39:00;;;;;;;13.18;8.27;;;10.20;99.90;;;;;;4936263;29;20031;-84
2021/12/17 04:46:51;;;;;;;11.80;8.18;;;10.20;99.90;;;;;;4953833;29;20031;-77
2021/12/17 04:57:29;;;;;;;10.40;7.50;;;10.20;99.90;;;;;;4953076;28;20034;-81
2021/12/17 04:59:59;;;;;;;11.65;8.10;;;10.20;99.90;;;;;;4951411;28;20046;-82
2021/12/17 05:02:26;;;;;;;11.07;7.68;;;10.20;99.90;;;;;;4952699;28;20019;-78
2021/12/17 05:04:53;;;;;;;10.48;7.25;;;10.20;99.90;;;;;;4935781;29;20040;-76
2021/12/17 05:07:18;;;;;;;11.98;7.40;;;10.20;99.90;;;;;;4935116;29;20023;-78
2021/12/17 05:09:53;;;;;;;10.43;7.82;;;10.10;99.90;;;;;;4935389;29;20032;-78
2021/12/17 05:23:06;;;;;;;12.25;8.23;;;10.10;99.90;;;;;;4952840;28;20404;-77
2021/12/17 05:25:32;;;;;;;10.20;6.95;;;10.10;99.90;;;;;;4934987;29;20031;-77
2021/12/17 05:28:01;;;;;;;11.57;7.45;;;10.10;99.90;;;;;;4935864;29;20031;-78
2021/12/17 05:30:32;;;;;;;13.75;8.90;;;10.10;99.90;;;;;;4958589;28;20059;-78
2021/12/17 05:32:58;;;;;;;12.10;8.45;;;10.10;99.90;;;;;;4950560;28;20062;-81
2021/12/17 05:35:26;;;;;;;15.10;10.10;;;10.10;99.90;;;;;;4935363;29;20033;-76
2021/12/17 05:37:52;;;;;;;12.80;8.70;;;10.20;99.90;;;;;;4935765;29;20023;-79
2021/12/17 05:40:18;;;;;;;11.55;8.52;;;10.10;99.90;;;;;;4929005;28;20090;-77
2021/12/17 05:42:43;;;;;;;13.52;9.02;;;10.10;99.90;;;;;;4941401;28;20026;-78
2021/12/17 05:48:09;;;;;;;14.23;9.23;;;10.10;99.90;;;;;;4925330;29;20031;-83
2021/12/17 05:50:37;;;;;;;13.93;9.50;;;10.10;99.90;;;;;;4934288;29;20471;-83
2021/12/17 05:53:03;;;;;;;12.50;8.90;;;10.10;99.90;;;;;;4933255;29;20054;-77
2021/12/17 05:55:29;;;;;;;11.98;8.68;;;10.10;99.90;;;;;;4934451;29;20553;-77
2021/12/17 05:57:55;;;;;;;13.88;9.23;;;10.10;99.90;;;;;;4935535;29;20043;-77
2021/12/17 06:00:22;;;;;;;11.52;8.32;;;10.10;99.90;;;;;;4934771;29;20028;-78
2021/12/17 06:02:50;;;;;;;14.43;9.05;;;10.10;99.90;;;;;;4934693;29;20131;-81
2021/12/17 06:05:16;;;;;;;11.32;7.93;;;10.10;99.90;;;;;;4935268;29;20480;-78
2021/12/17 06:07:41;;;;;;;13.18;8.80;;;10.10;99.90;;;;;;4934775;29;20034;-78
2021/12/17 06:10:09;;;;;;;13.82;9.43;;;10.10;99.90;;;;;;4935154;29;20484;-79
2021/12/17 06:12:36;;;;;;;13.90;8.30;;;10.10;99.90;;;;;;4934752;29;20050;-77
2021/12/17 06:15:08;;;;;;;15.02;10.30;;;10.10;99.90;;;;;;4934496;29;20042;-79
2021/12/17 06:17:34;;;;;;;15.27;10.32;;;10.10;99.90;;;;;;4952167;29;20114;-78
2021/12/17 06:20:00;;;;;;;13.95;9.68;;;10.10;99.90;;;;;;4934716;29;20436;-79
2021/12/17 06:22:25;;;;;;;13.85;9.52;;;10.10;99.90;;;;;;4949271;28;20027;-78
2021/12/17 06:24:52;;;;;;;15.48;9.30;;;10.10;99.90;;;;;;4949984;28;20041;-78
2021/12/17 06:27:19;;;;;;;12.38;8.65;;;10.10;99.90;;;;;;4948833;29;20026;-77
2021/12/17 06:29:44;;;;;;;13.18;9.10;;;10.10;99.90;;;;;;4948974;28;20638;-77
2021/12/17 06:32:11;;;;;;;12.40;8.23;;;10.10;99.90;;;;;;4931926;29;20119;-77
2021/12/17 06:34:37;;;;;;;12.32;8.77;;;10.10;99.90;;;;;;4949631;29;20031;-80
2021/12/17 06:37:04;;;;;;;11.77;8.23;;;10.10;99.90;;;;;;4948397;28;20019;-85
2021/12/17 06:39:31;;;;;;;11.68;8.45;;;10.10;99.90;;;;;;4949576;28;20487;-79
2021/12/17 06:41:57;;;;;;;14.07;9.05;;;10.10;99.90;;;;;;4949969;28;20039;-80
2021/12/17 06:44:25;;;;;;;12.48;8.18;;;10.10;99.90;;;;;;4948592;28;20027;-79
2021/12/17 06:47:00;;;;;;;12.05;8.45;;;10.10;99.90;;;;;;4941037;29;20028;-82
2021/12/17 06:54:44;;;;;;;11.68;8.18;;;10.10;99.90;;;;;;4954511;29;20050;-82
2021/12/17 07:17:53;;;;;;;12.63;7.65;;;10.10;99.90;;;;;;4947508;29;20042;-80
2021/12/17 07:23:47;;;;;;;11.30;8.55;;;10.10;99.90;;;;;;4935746;29;20099;-81
2021/12/17 07:33:45;;;;;;;13.32;9.65;;;10.10;99.90;;;;;;4953638;28;20035;-82
2021/12/17 07:36:14;;;;;;;13.30;9.45;;;10.10;99.90;;;;;;4953225;28;20026;-81
2021/12/17 07:38:48;;;;;;;11.38;7.90;;;10.10;99.90;;;;;;4953343;29;20291;-82
2021/12/17 07:41:14;;;;;;;9.98;7.10;;;10.10;99.90;;;;;;4936213;29;20054;-82
2021/12/17 07:43:51;;;;;;;10.10;7.18;;;10.00;99.90;;;;;;4952992;29;20055;-82
2021/12/17 07:46:26;;;;;;;10.35;7.30;;;10.00;99.90;;;;;;4952051;28;20136;-83
2021/12/17 07:48:52;;;;;;;8.85;6.45;;;10.00;99.90;;;;;;4922858;29;20043;-84
2021/12/17 07:51:20;;;;;;;8.70;6.10;;;10.00;99.90;;;;;;4955222;28;20034;-84
2021/12/17 07:53:46;;;;;;;7.53;5.45;;;10.00;99.90;;;;;;4950263;28;20042;-87
2021/12/17 07:56:15;;;;;;;7.55;5.68;;;10.00;99.90;;;;;;4936748;29;20031;-84
2021/12/17 07:58:41;;;;;;;8.65;6.15;;;10.10;99.90;;;;;;4964196;28;20616;-80
2021/12/17 08:01:10;;;;;;;7.93;5.30;;;10.10;99.90;;;;;;4958334;28;20058;-84
2021/12/17 08:03:37;;;;;;;8.27;5.75;;;10.10;99.90;;;;;;4949568;28;20054;-78
2021/12/17 08:06:03;;;;;;;7.97;5.95;;;10.10;99.90;;;;;;4937109;29;20023;-80
2021/12/17 08:08:28;;;;;;;8.98;6.43;;;10.10;99.90;;;;;;4948326;29;20031;-82
2021/12/17 08:10:54;;;;;;;6.50;5.40;;;10.10;99.90;;;;;;4939872;28;20036;-81
2021/12/17 08:13:27;;;;;;;7.70;5.57;;;10.10;99.90;;;;;;4934328;29;20031;-78
2021/12/17 08:16:18;;;;;;;8.32;5.82;;;10.10;99.90;;;;;;4952111;29;20019;-80
2021/12/17 08:27:27;;;;;;;8.73;6.63;;;9.90;99.90;;;;;;4953502;28;20046;-83
2021/12/17 08:32:39;;;;;;;8.90;5.93;;;9.80;99.90;;;;;;4952267;29;20055;-84
2021/12/17 08:35:05;;;;;;;9.00;5.93;;;9.80;99.90;;;;;;4951775;28;20027;-81
2021/12/17 08:37:32;;;;;;;8.77;6.00;;;9.80;99.90;;;;;;4943023;28;20027;-87
2021/12/17 08:39:57;;;;;;;7.38;5.15;;;9.80;99.90;;;;;;4952574;28;20034;-79
2021/12/17 08:42:23;;;;;;;8.45;6.10;;;9.80;99.90;;;;;;4934606;29;20030;-85
2021/12/17 08:44:49;;;;;;;9.73;6.03;;;9.80;99.90;;;;;;4952211;28;20499;-85
2021/12/17 08:47:14;;;;;;;8.60;6.32;;;9.90;99.90;;;;;;4951786;28;20130;-83
2021/12/17 08:49:41;;;;;;;8.90;6.63;;;9.90;99.90;;;;;;4931436;29;20466;-83
2021/12/17 08:52:07;;;;;;;9.88;6.57;;;9.90;99.90;;;;;;4917238;29;20031;-80
2021/12/17 08:54:33;;;;;;;9.73;6.28;;;9.90;99.90;;;;;;4950559;29;20024;-83
2021/12/17 08:56:59;;;;;;;9.10;6.07;;;9.90;99.90;;;;;;4952474;28;20435;-83
2021/12/17 08:59:26;;;;;;;8.48;6.63;;;9.90;99.90;;;;;;4951711;28;20031;-82
2021/12/17 09:01:52;;;;;;;9.00;6.07;;;9.80;99.90;;;;;;4952248;29;20026;-84
2021/12/17 09:04:20;;;;;;;8.43;6.25;;;9.80;99.90;;;;;;4951302;28;20027;-84
2021/12/17 09:06:46;;;;;;;8.25;6.30;;;9.80;99.90;;;;;;4951759;28;20019;-85
2021/12/17 09:09:17;;;;;;;9.07;6.47;;;9.70;99.90;;;;;;4951912;28;20019;-81
2021/12/17 09:11:43;;;;;;;9.13;5.55;;;9.80;99.90;;;;;;4950751;28;20031;-84
2021/12/17 09:14:09;;;;;;;6.85;5.00;;;9.80;99.90;;;;;;4951957;29;20102;-81
2021/12/17 09:16:35;;;;;;;8.00;5.72;;;9.80;99.90;;;;;;4951788;28;20031;-81
2021/12/17 09:19:03;;;;;;;7.30;5.20;;;9.80;99.90;;;;;;4950922;29;20081;-83
2021/12/17 09:21:29;;;;;;;6.97;5.18;;;9.80;99.90;;;;;;4951550;29;20396;-81
2021/12/17 09:23:55;;;;;;;6.97;4.68;;;9.80;99.90;;;;;;4951785;28;20483;-82
2021/12/17 09:26:22;;;;;;;7.57;4.78;;;9.80;99.90;;;;;;4934887;29;20023;-81
2021/12/17 09:28:48;;;;;;;8.57;6.15;;;9.80;99.90;;;;;;4951440;28;20051;-83
2021/12/17 09:31:14;;;;;;;7.40;4.88;;;9.80;99.90;;;;;;4951490;28;20054;-81
2021/12/17 09:33:42;;;;;;;6.05;4.60;;;9.70;99.90;;;;;;4952066;29;20071;-82
2021/12/17 09:36:08;;;;;;;7.20;4.22;;;9.70;99.90;;;;;;4951228;28;20127;-81
2021/12/17 09:38:33;;;;;;;5.63;3.63;;;9.70;99.90;;;;;;4951106;28;20498;-82
2021/12/17 09:40:59;;;;;;;4.32;3.10;;;9.70;99.90;;;;;;4950891;29;20034;-85
2021/12/17 09:43:26;;;;;;;4.72;3.70;;;9.80;99.90;;;;;;4949020;29;20027;-77
2021/12/17 09:45:52;;;;;;;4.18;3.67;;;9.80;99.90;;;;;;4933376;28;20093;-82
2021/12/17 09:48:20;;;;;;;3.53;3.22;;;9.80;99.90;;;;;;4935317;29;20027;-81
2021/12/17 09:50:46;;;;;;;5.03;3.60;;;9.80;99.90;;;;;;4935474;29;20027;-81
2021/12/17 09:53:12;;;;;;;7.00;4.47;;;9.80;99.90;;;;;;4935579;29;20023;-84
2021/12/17 09:55:38;;;;;;;4.80;3.65;;;9.80;99.90;;;;;;4935573;29;20031;-84
2021/12/17 09:58:04;;;;;;;4.28;3.80;;;9.80;99.90;;;;;;4935351;29;20563;-89
2021/12/17 10:00:30;;;;;;;4.35;3.35;;;9.80;99.90;;;;;;4951858;29;20107;-86
2021/12/17 10:02:55;;;;;;;4.57;3.47;;;9.80;99.90;;;;;;4935631;29;20119;-83
2021/12/17 10:05:31;;;;;;;4.88;3.80;;;9.90;99.90;;;;;;4936532;28;20138;-82
2021/12/17 10:08:00;;;;;;;3.85;3.42;;;9.90;99.90;;;;;;4954907;28;20172;-82
2021/12/17 10:10:42;;;;;;;4.55;3.70;;;9.90;99.90;;;;;;4933549;29;20023;-84
2021/12/17 10:13:19;;;;;;;4.18;2.80;;;10.00;99.90;;;;;;4947476;29;20039;-85
2021/12/17 10:15:51;;;;;;;3.10;2.80;;;10.00;99.90;;;;;;4947255;29;20054;-85
2021/12/17 10:18:29;;;;;;;4.07;3.00;;;10.10;99.90;;;;;;4940026;29;20051;-84
2021/12/17 10:21:01;;;;;;;3.72;2.92;;;10.10;99.90;;;;;;4959542;28;20471;-82
2021/12/17 10:23:29;;;;;;;3.45;2.90;;;10.10;99.90;;;;;;4933813;28;20053;-80
2021/12/17 10:25:54;;;;;;;3.72;3.00;;;10.20;99.90;;;;;;4952494;28;20027;-79
2021/12/17 10:28:21;;;;;;;4.20;3.25;;;10.20;99.90;;;;;;4955446;28;20062;-80
2021/12/17 10:30:49;;;;;;;4.30;3.00;;;10.20;99.90;;;;;;4938461;29;20035;-80
2021/12/17 10:33:51;;;;;;;4.25;2.85;;;10.20;99.90;;;;;;4926101;29;20136;-85
2021/12/17 10:36:17;;;;;;;3.75;2.60;;;10.20;99.90;;;;;;4938283;28;20035;-83
2021/12/17 10:38:44;;;;;;;3.53;3.03;;;10.30;99.90;;;;;;4929299;28;20395;-84
2021/12/17 10:41:14;;;;;;;4.68;2.83;;;10.30;99.90;;;;;;4953436;29;20035;-80
2021/12/17 10:43:48;;;;;;;4.93;2.72;;;10.30;99.90;;;;;;4949981;28;20027;-80
2021/12/17 10:48:51;;;;;;;5.07;2.80;;;10.40;99.90;;;;;;4936740;29;20039;-81
2021/12/17 10:54:15;;;;;;;3.80;2.80;;;10.40;99.90;;;;;;4936443;29;20477;-85
2021/12/17 10:57:07;;;;;;;3.17;2.75;;;10.50;99.90;;;;;;4934453;29;20032;-83
2021/12/17 10:59:36;;;;;;;3.17;2.50;;;10.50;99.90;;;;;;4932847;29;20070;-79
2021/12/17 11:02:10;;;;;;;3.67;2.60;;;10.50;99.90;;;;;;4935235;29;20020;-79
2021/12/17 11:04:43;;;;;;;3.17;2.65;;;10.50;99.90;;;;;;4934568;29;20036;-80
2021/12/17 11:07:15;;;;;;;3.10;2.50;;;10.50;99.90;;;;;;4936286;29;20716;-83
2021/12/17 11:10:00;;;;;;;3.17;2.75;;;10.50;99.90;;;;;;4934684;29;20091;-80
2021/12/17 11:12:37;;;;;;;3.20;2.55;;;10.40;99.90;;;;;;4934383;29;20059;-82
2021/12/17 11:15:18;;;;;;;2.80;2.40;;;10.50;99.90;;;;;;4935294;29;20035;-85
2021/12/17 11:17:47;;;;;;;3.65;2.72;;;10.50;99.90;;;;;;4934192;29;20030;-79
2021/12/17 11:20:17;;;;;;;3.17;2.50;;;10.50;99.90;;;;;;4934461;29;20122;-84
2021/12/17 11:22:44;;;;;;;4.68;2.88;;;10.50;99.90;;;;;;4934752;29;20020;-79
2021/12/17 11:25:11;;;;;;;3.75;2.80;;;10.60;99.90;;;;;;4934135;29;20055;-84
2021/12/17 11:27:37;;;;;;;3.70;2.90;;;10.60;99.90;;;;;;4934441;29;20027;-79
2021/12/17 11:30:09;;;;;;;3.88;2.85;;;10.60;99.90;;;;;;4934110;29;20130;-80
2021/12/17 11:32:35;;;;;;;3.08;2.40;;;10.50;99.90;;;;;;4933571;29;20070;-82
2021/12/17 11:35:03;;;;;;;3.13;2.83;;;10.50;99.90;;;;;;4934020;29;20404;-85
2021/12/17 11:37:30;;;;;;;4.07;3.00;;;10.50;99.90;;;;;;4934017;29;20020;-79
2021/12/17 11:40:00;;;;;;;3.67;2.90;;;10.50;99.90;;;;;;4933667;29;20094;-78
2021/12/17 11:42:34;;;;;;;3.60;2.70;;;10.50;99.90;;;;;;4935633;29;20028;-78
2021/12/17 11:47:46;;;;;;;2.78;2.35;;;10.50;99.90;;;;;;4935466;29;20448;-83
2021/12/17 11:50:16;;;;;;;2.10;1.83;;;10.50;99.90;;;;;;4934322;29;20034;-79
2021/12/17 11:52:47;;;;;;;4.40;2.83;;;10.40;99.90;;;;;;4933586;29;20376;-78
2021/12/17 11:55:27;;;;;;;;;;;10.50;99.90;;;;;;4934520;29;20028;-79
2021/12/17 11:57:58;;;;;;;2.97;1.95;;;10.40;99.90;;;;;;4918302;29;19914;-81
2021/12/17 12:00:47;;;;;;;2.33;1.90;;;10.40;99.90;;;;;;4933339;29;20035;-79
2021/12/17 12:03:23;;;;;;;1.30;1.20;;;10.40;99.90;;;;;;4934005;29;20556;-78
2021/12/17 12:05:52;;;;;;;1.65;1.33;;;10.40;99.90;;;;;;4933891;29;20028;-83
2021/12/17 12:08:28;;;;;;;1.70;1.60;;;10.40;99.90;;;;;;4933098;29;20028;-79
2021/12/17 12:11:07;;;;;;;1.38;1.27;;;10.40;99.90;;;;;;4933907;29;20547;-82
2021/12/17 12:13:52;;;;;;;1.40;1.30;;;10.40;99.90;;;;;;4933320;29;20488;-79
2021/12/17 12:16:24;;;;;;;2.45;2.10;;;10.50;99.90;;;;;;4933774;29;20034;-77
2021/12/17 12:18:52;;;;;;;2.88;1.70;;;10.50;99.90;;;;;;4933991;29;20064;-77
2021/12/17 12:21:21;;;;;;;1.85;1.58;;;10.50;99.90;;;;;;4932715;29;20055;-78
2021/12/17 12:24:09;;;;;;;2.00;1.80;;;10.60;99.90;;;;;;4933348;29;20032;-82
2021/12/17 12:26:37;;;;;;;4.95;1.77;;;10.70;99.90;;;;;;4933691;29;20031;-78
2021/12/17 12:29:17;;;;;;;2.80;2.08;;;10.70;99.90;;;;;;4934281;29;20445;-82
2021/12/17 12:31:52;;;;;;;2.17;1.77;;;10.70;99.90;;;;;;4933399;29;20428;-83
2021/12/17 12:34:21;;;;;;;2.33;2.10;;;10.70;99.90;;;;;;4934784;29;20114;-84
2021/12/17 12:37:04;;;;;;;2.67;2.38;;;10.70;99.90;;;;;;4934107;29;20417;-80
2021/12/17 12:39:46;;;;;;;3.55;2.38;;;10.80;99.90;;;;;;4933130;29;20103;-78
2021/12/17 12:42:28;;;;;;;2.75;1.80;;;10.80;99.90;;;;;;4932469;29;20092;-79
2021/12/17 12:44:56;;;;;;;2.78;1.80;;;10.80;99.90;;;;;;4932828;29;20114;-84
2021/12/17 12:47:31;;;;;;;3.08;2.08;;;10.90;99.90;;;;;;4932954;29;20032;-82
2021/12/17 12:50:03;;;;;;;1.77;1.60;;;10.90;99.90;;;;;;4932373;29;20555;-78
2021/12/17 12:52:31;;;;;;;1.35;1.25;;;10.90;99.90;;;;;;4932689;29;20384;-82
2021/12/17 12:55:12;;;;;;;2.10;1.60;;;10.90;99.90;;;;;;4932917;29;20035;-83
2021/12/17 12:57:40;;;;;;;2.65;2.00;;;10.90;99.90;;;;;;4931925;29;20123;-82
2021/12/17 13:00:10;;;;;;;2.30;1.92;;;11.00;99.90;;;;;;4933043;29;20028;-83
2021/12/17 13:02:37;;;;;;;2.20;1.95;;;11.00;99.90;;;;;;4932323;29;20027;-81
2021/12/17 13:05:06;;;;;;;2.90;2.60;;;11.00;99.90;;;;;;4932770;29;20023;-78
2021/12/17 13:07:38;;;;;;;2.20;2.00;;;11.00;99.90;;;;;;4932725;29;20055;-83
2021/12/17 13:10:26;;;;;;;1.80;1.70;;;11.00;99.90;;;;;;4932189;29;20432;-83
2021/12/17 13:13:18;;;;;;;1.88;1.77;;;11.00;99.90;;;;;;4933071;29;20024;-83
2021/12/17 13:15:50;;;;;;;;;;;11.10;99.90;;;;;;4933012;29;20376;-80
2021/12/17 13:23:49;;;;;;;3.05;1.90;;;11.00;99.90;;;;;;4933602;29;20389;-78
2021/12/17 13:26:16;;;;;;;3.10;1.80;;;11.00;99.90;;;;;;4932919;29;20020;-78
2021/12/17 13:29:04;;;;;;;2.42;2.13;;;10.90;99.90;;;;;;4932467;29;20039;-78
2021/12/17 13:31:38;;;;;;;1.85;1.63;;;10.90;99.90;;;;;;4932375;29;20043;-80
2021/12/17 13:34:13;;;;;;;2.83;2.20;;;10.80;99.90;;;;;;4933104;29;20035;-83
2021/12/17 13:36:53;;;;;;;2.38;2.17;;;10.80;99.90;;;;;;4932851;29;20385;-79
2021/12/17 13:39:21;;;;;;;1.80;1.60;;;10.80;99.90;;;;;;4931927;29;20045;-81
2021/12/17 13:41:48;;;;;;;2.72;2.00;;;10.80;99.90;;;;;;4932800;29;20114;-85
2021/12/17 13:44:37;;;;;;;2.30;2.10;;;10.80;99.90;;;;;;4932691;29;20059;-82
2021/12/17 13:47:24;;;;;;;2.63;2.20;;;10.80;99.90;;;;;;4933366;29;20059;-81
2021/12/17 13:50:06;;;;;;;2.20;2.00;;;10.70;99.90;;;;;;4932802;29;20028;-77
2021/12/17 13:52:33;;;;;;;1.60;1.50;;;10.70;99.90;;;;;;4931703;29;20578;-82
2021/12/17 13:55:01;;;;;;;1.90;1.70;;;10.70;99.90;;;;;;4932564;29;20031;-79
2021/12/17 13:57:30;;;;;;;2.42;1.90;;;10.70;99.90;;;;;;4933256;29;20400;-83
2021/12/17 14:00:18;;;;;;;3.38;2.40;;;10.70;99.90;;;;;;4931908;29;20110;-78
2021/12/17 14:02:45;;;;;;;2.70;2.13;;;10.70;99.90;;;;;;4932184;29;20031;-78
2021/12/17 14:05:40;;;;;;;2.92;2.33;;;10.70;99.90;;;;;;4932463;29;20616;-80
2021/12/17 14:08:08;;;;;;;4.05;2.40;;;10.70;99.90;;;;;;4931703;29;20035;-78
2021/12/17 14:10:36;;;;;;;5.10;2.85;;;10.70;99.90;;;;;;4931932;29;20038;-79
2021/12/17 14:13:04;;;;;;;3.63;2.80;;;10.70;99.90;;;;;;4932002;29;20031;-78
2021/12/17 14:15:33;;;;;;;2.42;2.22;;;10.70;99.90;;;;;;4931493;29;20027;-81
2021/12/17 14:18:05;;;;;;;2.50;2.30;;;10.70;99.90;;;;;;4932004;29;20091;-79
2021/12/17 14:20:36;;;;;;;;;;;10.70;99.90;;;;;;4931741;29;20020;-84
2021/12/17 14:23:08;;;;;;;2.80;2.38;;;10.70;99.90;;;;;;4932360;29;19907;-78
2021/12/17 14:25:44;;;;;;;3.33;2.60;;;10.70;99.90;;;;;;4932299;29;20053;-82
2021/12/17 14:28:16;;;;;;;3.53;2.72;;;10.70;99.90;;;;;;4932560;29;20031;-78
2021/12/17 14:30:45;;;;;;;3.83;2.83;;;10.70;99.90;;;;;;4932064;29;20476;-80
2021/12/17 14:33:33;;;;;;;4.47;2.97;;;10.60;99.90;;;;;;4932602;29;20051;-78
2021/12/17 14:36:08;;;;;;;3.28;2.92;;;10.60;99.90;;;;;;4931532;29;20027;-80
2021/12/17 14:38:43;;;;;;;4.20;3.47;;;10.50;99.90;;;;;;4931860;29;20452;-81
2021/12/17 14:41:26;;;;;;;5.97;3.50;;;10.50;99.90;;;;;;4931333;29;20024;-80
2021/12/17 14:44:05;;;;;;;3.45;2.97;;;10.50;99.90;;;;;;4932422;29;20034;-80
2021/12/17 14:46:53;;;;;;;3.85;3.08;;;10.40;99.90;;;;;;4931326;29;20031;-78
2021/12/17 14:57:14;;;;;;;3.28;2.88;;;10.40;99.90;;;;;;4930736;29;20389;-78
2021/12/17 15:00:57;;;;;;;4.90;3.20;;;10.40;99.90;;;;;;4932931;29;20131;-79
2021/12/17 15:05:51;;;;;;;3.55;3.20;;;10.40;99.90;;;;;;4933731;29;20028;-77
2021/12/17 15:08:17;;;;;;;4.63;2.88;;;10.40;99.90;;;;;;4932043;29;20114;-77
2021/12/17 15:10:45;;;;;;;5.75;3.78;;;10.40;99.90;;;;;;4933976;29;20086;-77
2021/12/17 15:13:10;;;;;;;3.17;2.88;;;10.40;99.90;;;;;;4934884;29;20052;-76
2021/12/17 15:15:38;;;;;;;4.00;3.45;;;10.40;99.90;;;;;;4934342;29;20055;-77
2021/12/17 15:18:10;;;;;;;3.90;3.47;;;10.40;99.90;;;;;;4934306;29;20023;-78
2021/12/17 15:20:36;;;;;;;4.60;3.15;;;10.40;99.90;;;;;;4934897;29;20024;-78
2021/12/17 15:23:04;;;;;;;5.20;3.75;;;10.40;99.90;;;;;;4934926;29;20118;-78
2021/12/17 15:25:31;;;;;;;9.35;5.60;;;10.40;99.90;;;;;;4935237;29;20039;-80
2021/12/17 15:27:57;;;;;;;5.82;4.45;;;10.30;99.90;;;;;;4934474;29;20496;-77
2021/12/17 15:30:25;;;;;;;6.35;4.43;;;10.40;99.90;;;;;;4933505;29;20052;-80
2021/12/17 15:32:52;;;;;;;5.20;3.80;;;10.40;99.90;;;;;;4934697;29;20027;-80
2021/12/17 15:35:20;;;;;;;3.88;3.33;;;10.40;99.90;;;;;;4934620;29;20023;-78
2021/12/17 15:37:46;;;;;;;3.65;3.35;;;10.30;99.90;;;;;;4935254;29;20055;-80
2021/12/17 15:40:14;;;;;;;4.90;3.47;;;10.30;99.90;;;;;;4935390;29;20035;-77
2021/12/17 15:42:40;;;;;;;4.43;3.30;;;10.30;99.90;;;;;;4934608;29;20092;-79
2021/12/17 15:45:06;;;;;;;3.67;3.25;;;10.40;99.90;;;;;;4933763;29;20396;-78
2021/12/17 15:47:32;;;;;;;6.10;3.72;;;10.40;99.90;;;;;;4934120;29;20449;-80
2021/12/17 15:49:58;;;;;;;4.55;3.70;;;10.40;99.90;;;;;;4934500;29;20071;-78
2021/12/17 15:52:23;;;;;;;5.78;4.38;;;10.30;99.90;;;;;;4917937;29;20028;-78
2021/12/17 15:54:49;;;;;;;5.32;4.57;;;10.30;99.90;;;;;;4934842;29;20147;-78
2021/12/17 15:57:16;;;;;;;5.70;4.40;;;10.30;99.90;;;;;;4935619;29;20098;-77
2021/12/17 15:59:43;;;;;;;6.43;4.75;;;10.20;99.90;;;;;;4933424;29;20039;-77
2021/12/17 16:02:09;;;;;;;5.93;4.63;;;10.20;99.90;;;;;;4934553;29;20468;-81
2021/12/17 16:04:36;;;;;;;4.25;3.85;;;10.20;99.90;;;;;;4935555;29;20028;-80
2021/12/17 16:07:02;;;;;;;4.68;4.00;;;10.20;99.90;;;;;;4933389;29;20027;-79
2021/12/17 16:23:17;;;;;;;7.07;4.88;;;10.30;99.90;;;;;;4935633;29;20408;-77
2021/12/17 16:25:43;;;;;;;4.65;4.20;;;10.30;99.90;;;;;;4933880;29;20019;-76